sensor_id;sensor_type;location;lat;lon;timestamp;pressure;altitude;pressure_sealevel;temperature;humidity
76044;BME280;64740;34.694;33.088;2023-02-01T00:01:11;1029.8;;;15.8;43.1
76044;BME280;64740;34.694;33.088;2023-02-01T00:06:47;1029.8;;;15.7;43.1
76044;BME280;64740;34.694;33.088;2023-02-01T00:11:59;1029.8;;;15.7;43.2
76044;BME280;64740;34.694;33.088;2023-02-01T00:16:57;1029.7;;;15.7;43.3
76044;BME280;64740;34.694;33.088;2023-02-01T00:21:11;1029.7;;;15.7;43.4
76044;BME280;64740;34.694;33.088;2023-02-01T00:26:57;1029.6;;;15.6;43.4
76044;BME280;64740;34.694;33.088;2023-02-01T00:31:11;1029.6;;;15.5;43.5
76044;BME280;64740;34.694;33.088;2023-02-01T00:36:11;1029.6;;;15.5;43.5
76044;BME280;64740;34.694;33.088;2023-02-01T00:41:35;1029.5;;;15.5;43.6
76044;BME280;64740;34.694;33.088;2023-02-01T00:46:11;1029.4;;;15.5;43.6
76044;BME280;64740;34.694;33.088;2023-02-01T00:51:35;1029.4;;;15.5;43.7
76044;BME280;64740;34.694;33.088;2023-02-01T00:56:11;1029.4;;;15.5;43.7
76044;BME280;64740;34.694;33.088;2023-02-01T01:01:12;1029.4;;;15.5;43.7
76044;BME280;64740;34.694;33.088;2023-02-01T01:06:57;1029.4;;;15.5;43.7
76044;BME280;64740;34.694;33.088;2023-02-01T01:11:22;1029.3;;;15.5;43.7
76044;BME280;64740;34.694;33.088;2023-02-01T01:16:11;1029.2;;;15.5;43.9
76044;BME280;64740;34.694;33.088;2023-02-01T01:21:57;1029.1;;;15.5;44
76044;BME280;64740;34.694;33.088;2023-02-01T01:26:47;1029.1;;;15.5;44
76044;BME280;64740;34.694;33.088;2023-02-01T01:31:11;1028.9;;;15.6;43.9
76044;BME280;64740;34.694;33.088;2023-02-01T01:36:21;1028.9;;;15.6;44.1
76044;BME280;64740;34.694;33.088;2023-02-01T01:41:35;1029;;;15.7;44
76044;BME280;64740;34.694;33.088;2023-02-01T01:46:12;1029;;;15.7;43.9
76044;BME280;64740;34.694;33.088;2023-02-01T01:52:00;1029;;;15.7;44
76044;BME280;64740;34.694;33.088;2023-02-01T01:56:25;1028.9;;;15.7;44.2
76044;BME280;64740;34.694;33.088;2023-02-01T02:01:55;1028.9;;;15.7;44.3
76044;BME280;64740;34.694;33.088;2023-02-01T02:06:39;1028.9;;;15.7;44.5
76044;BME280;64740;34.694;33.088;2023-02-01T02:11:57;1028.9;;;15.7;44.6
76044;BME280;64740;34.694;33.088;2023-02-01T02:16:25;1028.8;;;15.7;44.8
76044;BME280;64740;34.694;33.088;2023-02-01T02:21:41;1028.7;;;15.7;44.8
76044;BME280;64740;34.694;33.088;2023-02-01T02:26:18;1028.7;;;15.8;45.3
76044;BME280;64740;34.694;33.088;2023-02-01T02:32:05;1028.7;;;15.8;45.3
76044;BME280;64740;34.694;33.088;2023-02-01T02:36:13;1028.6;;;15.8;45.4
76044;BME280;64740;34.694;33.088;2023-02-01T02:41:13;1028.7;;;15.7;45.5
76044;BME280;64740;34.694;33.088;2023-02-01T02:47:00;1028.7;;;15.7;45.8
76044;BME280;64740;34.694;33.088;2023-02-01T02:51:35;1028.8;;;15.7;46.1
76044;BME280;64740;34.694;33.088;2023-02-01T02:56:57;1028.8;;;15.7;46.2
76044;BME280;64740;34.694;33.088;2023-02-01T03:01:35;1028.8;;;15.7;46.5
76044;BME280;64740;34.694;33.088;2023-02-01T03:06:57;1028.8;;;15.8;46.4
76044;BME280;64740;34.694;33.088;2023-02-01T03:11:25;1028.8;;;15.8;46.5
76044;BME280;64740;34.694;33.088;2023-02-01T03:16:48;1028.9;;;15.9;46.4
76044;BME280;64740;34.694;33.088;2023-02-01T03:21:12;1028.9;;;15.8;46.4
76044;BME280;64740;34.694;33.088;2023-02-01T03:26:55;1028.9;;;15.9;46.8
76044;BME280;64740;34.694;33.088;2023-02-01T03:31:35;1028.9;;;15.9;46.5
76044;BME280;64740;34.694;33.088;2023-02-01T03:36:48;1028.9;;;15.9;46.7
76044;BME280;64740;34.694;33.088;2023-02-01T03:41:58;1028.8;;;15.9;46.9
76044;BME280;64740;34.694;33.088;2023-02-01T03:46:47;1028.8;;;15.9;47.3
76044;BME280;64740;34.694;33.088;2023-02-01T03:51:45;1028.8;;;15.7;47.9
76044;BME280;64740;34.694;33.088;2023-02-01T03:56:11;1028.8;;;15.6;48.3
76044;BME280;64740;34.694;33.088;2023-02-01T04:01:27;1028.8;;;15.6;48
76044;BME280;64740;34.694;33.088;2023-02-01T04:06:11;1028.7;;;15.5;48.2
76044;BME280;64740;34.694;33.088;2023-02-01T04:11:47;1028.7;;;15.5;48.6
76044;BME280;64740;34.694;33.088;2023-02-01T04:16:25;1028.7;;;15.6;48.8
76044;BME280;64740;34.694;33.088;2023-02-01T04:21:47;1028.7;;;15.6;48.6
76044;BME280;64740;34.694;33.088;2023-02-01T04:26:35;1028.6;;;15.6;48.5
76044;BME280;64740;34.694;33.088;2023-02-01T04:31:35;1028.7;;;15.7;48.5
76044;BME280;64740;34.694;33.088;2023-02-01T04:36:29;1028.7;;;15.6;47.9
76044;BME280;64740;34.694;33.088;2023-02-01T04:41:43;1028.6;;;15.6;48
76044;BME280;64740;34.694;33.088;2023-02-01T04:46:59;1028.6;;;15.7;48
76044;BME280;64740;34.694;33.088;2023-02-01T04:51:11;1028.5;;;15.6;47.8
76044;BME280;64740;34.694;33.088;2023-02-01T04:56:43;1028.5;;;15.5;47.8
76044;BME280;64740;34.694;33.088;2023-02-01T05:01:23;1028.7;;;15.4;47.8
76044;BME280;64740;34.694;33.088;2023-02-01T05:06:31;1028.9;;;15.2;49.6
76044;BME280;64740;34.694;33.088;2023-02-01T05:11:25;1028.9;;;15.1;50.6
76044;BME280;64740;34.694;33.088;2023-02-01T05:16:59;1028.9;;;15;51.1
76044;BME280;64740;34.694;33.088;2023-02-01T05:21:37;1028.8;;;15;51.6
76044;BME280;64740;34.694;33.088;2023-02-01T05:26:49;1028.9;;;14.9;52.6
76044;BME280;64740;34.694;33.088;2023-02-01T05:31:11;1028.9;;;15;52.8
76044;BME280;64740;34.694;33.088;2023-02-01T05:36:59;1028.9;;;15;54.2
76044;BME280;64740;34.694;33.088;2023-02-01T05:41:11;1028.9;;;15.1;54.5
76044;BME280;64740;34.694;33.088;2023-02-01T05:46:11;1028.8;;;15.2;55.2
76044;BME280;64740;34.694;33.088;2023-02-01T05:52:01;1028.9;;;15.2;55.5
76044;BME280;64740;34.694;33.088;2023-02-01T05:56:25;1028.9;;;15.2;55.9
76044;BME280;64740;34.694;33.088;2023-02-01T06:01:43;1028.9;;;15.2;56
76044;BME280;64740;34.694;33.088;2023-02-01T06:06:55;1028.9;;;15.2;56.1
76044;BME280;64740;34.694;33.088;2023-02-01T06:11:59;1029;;;15.3;56.2
76044;BME280;64740;34.694;33.088;2023-02-01T06:16:33;1029;;;15.4;56.1
76044;BME280;64740;34.694;33.088;2023-02-01T06:21:45;1029;;;15.4;55.7
76044;BME280;64740;34.694;33.088;2023-02-01T06:26:45;1029;;;15.4;55.6
76044;BME280;64740;34.694;33.088;2023-02-01T06:31:53;1029;;;15.5;55.7
76044;BME280;64740;34.694;33.088;2023-02-01T06:36:35;1029.1;;;15.5;56.1
76044;BME280;64740;34.694;33.088;2023-02-01T06:41:23;1029.3;;;15.4;56.3
76044;BME280;64740;34.694;33.088;2023-02-01T06:46:59;1029.3;;;15.4;56.5
76044;BME280;64740;34.694;33.088;2023-02-01T06:51:17;1029.4;;;15.5;56.5
76044;BME280;64740;34.694;33.088;2023-02-01T06:56:47;1029.4;;;15.4;57
76044;BME280;64740;34.694;33.088;2023-02-01T07:01:57;1029.5;;;15.5;56.5
76044;BME280;64740;34.694;33.088;2023-02-01T07:06:59;1029.6;;;15.5;55.7
76044;BME280;64740;34.694;33.088;2023-02-01T07:11:35;1029.6;;;15.5;54.9
76044;BME280;64740;34.694;33.088;2023-02-01T07:16:49;1029.6;;;15.5;54.7
76044;BME280;64740;34.694;33.088;2023-02-01T07:21:11;1029.6;;;15.5;54.8
76044;BME280;64740;34.694;33.088;2023-02-01T07:26:12;1029.6;;;15.5;55.5
76044;BME280;64740;34.694;33.088;2023-02-01T07:31:37;1029.5;;;15.6;56
76044;BME280;64740;34.694;33.088;2023-02-01T07:36:12;1029.6;;;15.6;55.6
76044;BME280;64740;34.694;33.088;2023-02-01T07:41:37;1029.7;;;15.6;55
76044;BME280;64740;34.694;33.088;2023-02-01T07:46:39;1029.7;;;15.6;54.6
76044;BME280;64740;34.694;33.088;2023-02-01T07:51:37;1029.8;;;15.6;53.4
76044;BME280;64740;34.694;33.088;2023-02-01T07:57:01;1029.8;;;15.4;53.9
76044;BME280;64740;34.694;33.088;2023-02-01T08:01:45;1029.8;;;15.4;54
76044;BME280;64740;34.694;33.088;2023-02-01T08:06:33;1029.8;;;15.5;54.4
76044;BME280;64740;34.694;33.088;2023-02-01T08:11:57;1029.7;;;15.5;54.4
76044;BME280;64740;34.694;33.088;2023-02-01T08:16:47;1029.6;;;15.6;55.1
76044;BME280;64740;34.694;33.088;2023-02-01T08:21:11;1029.6;;;15.8;55.3
76044;BME280;64740;34.694;33.088;2023-02-01T08:26:35;1029.6;;;15.8;54.2
76044;BME280;64740;34.694;33.088;2023-02-01T08:31:27;1029.6;;;15.9;54.5
76044;BME280;64740;34.694;33.088;2023-02-01T08:36:26;1029.6;;;15.9;55.6
76044;BME280;64740;34.694;33.088;2023-02-01T08:41:59;1029.6;;;16;55.8
76044;BME280;64740;34.694;33.088;2023-02-01T08:46:39;1029.6;;;16.1;56
76044;BME280;64740;34.694;33.088;2023-02-01T08:52:01;1029.6;;;16.1;56.6
76044;BME280;64740;34.694;33.088;2023-02-01T08:56:37;1029.5;;;16.1;55.8
76044;BME280;64740;34.694;33.088;2023-02-01T09:01:59;1029.5;;;16.1;56.3
76044;BME280;64740;34.694;33.088;2023-02-01T09:06:39;1029.5;;;16.2;56.6
76044;BME280;64740;34.694;33.088;2023-02-01T09:11:43;1029.4;;;16.2;56.4
76044;BME280;64740;34.694;33.088;2023-02-01T09:16:23;1029.3;;;16.3;56.3
76044;BME280;64740;34.694;33.088;2023-02-01T09:21:59;1029.2;;;16.5;56.3
76044;BME280;64740;34.694;33.088;2023-02-01T09:26:23;1029.2;;;16.5;56.6
76044;BME280;64740;34.694;33.088;2023-02-01T09:31:57;1029;;;16.5;56.4
76044;BME280;64740;34.694;33.088;2023-02-01T09:36:47;1028.9;;;16.5;56.2
76044;BME280;64740;34.694;33.088;2023-02-01T09:41:50;1028.9;;;16.5;56.3
76044;BME280;64740;34.694;33.088;2023-02-01T09:46:45;1028.7;;;16.5;55.7
76044;BME280;64740;34.694;33.088;2023-02-01T09:51:38;1028.5;;;16.7;55.7
76044;BME280;64740;34.694;33.088;2023-02-01T09:56:51;1028.3;;;16.8;55.5
76044;BME280;64740;34.694;33.088;2023-02-01T10:01:13;1028.3;;;16.9;55.5
76044;BME280;64740;34.694;33.088;2023-02-01T10:06:49;1028.5;;;17;55.2
76044;BME280;64740;34.694;33.088;2023-02-01T10:11:27;1028.5;;;17;53.5
76044;BME280;64740;34.694;33.088;2023-02-01T10:17:01;1028.5;;;16.9;53
76044;BME280;64740;34.694;33.088;2023-02-01T10:21:28;1028.6;;;16.8;53
76044;BME280;64740;34.694;33.088;2023-02-01T10:26:59;1028.8;;;16.6;52.7
76044;BME280;64740;34.694;33.088;2023-02-01T10:31:57;1028.7;;;16.4;53
76044;BME280;64740;34.694;33.088;2023-02-01T10:36:50;1028.7;;;16.2;53
76044;BME280;64740;34.694;33.088;2023-02-01T10:41:43;1028.7;;;16;52
76044;BME280;64740;34.694;33.088;2023-02-01T10:46:23;1028.8;;;15.9;51.9
76044;BME280;64740;34.694;33.088;2023-02-01T10:51:28;1028.8;;;15.8;52.4
76044;BME280;64740;34.694;33.088;2023-02-01T10:56:21;1028.8;;;15.6;52.1
76044;BME280;64740;34.694;33.088;2023-02-01T11:01:37;1028.8;;;15.3;51.4
76044;BME280;64740;34.694;33.088;2023-02-01T11:06:32;1028.6;;;15.1;51.1
76044;BME280;64740;34.694;33.088;2023-02-01T11:11:53;1028.5;;;15.1;51.1
76044;BME280;64740;34.694;33.088;2023-02-01T11:16:38;1028.3;;;15.3;49.8
76044;BME280;64740;34.694;33.088;2023-02-01T11:22:01;1027.6;;;15.7;50.5
76044;BME280;64740;34.694;33.088;2023-02-01T11:26:47;1027.4;;;16.5;49.4
76044;BME280;64740;34.694;33.088;2023-02-01T11:31:45;1027.4;;;17.1;48.4
76044;BME280;64740;34.694;33.088;2023-02-01T11:37:00;1027.4;;;18;47.6
76044;BME280;64740;34.694;33.088;2023-02-01T11:41:12;1027.4;;;18.9;44.9
76044;BME280;64740;34.694;33.088;2023-02-01T11:46:51;1027.5;;;19.6;43.2
76044;BME280;64740;34.694;33.088;2023-02-01T11:51:18;1027.7;;;20.2;42
76044;BME280;64740;34.694;33.088;2023-02-01T11:56:53;1027.8;;;20.5;41.2
76044;BME280;64740;34.694;33.088;2023-02-01T12:01:15;1028;;;20.2;41.4
76044;BME280;64740;34.694;33.088;2023-02-01T12:07:00;1028.1;;;19.6;41.6
76044;BME280;64740;34.694;33.088;2023-02-01T12:11:18;1028.1;;;19.6;41.8
76044;BME280;64740;34.694;33.088;2023-02-01T12:16:52;1028;;;19.8;41.4
76044;BME280;64740;34.694;33.088;2023-02-01T12:21:59;1028;;;19.8;40.8
76044;BME280;64740;34.694;33.088;2023-02-01T12:27:07;1028.1;;;19.6;40.2
76044;BME280;64740;34.694;33.088;2023-02-01T12:31:25;1028.1;;;18.9;38.6
76044;BME280;64740;34.694;33.088;2023-02-01T12:36:13;1028.3;;;18.3;39.3
76044;BME280;64740;34.694;33.088;2023-02-01T12:42:04;1028.4;;;17.8;40.3
76044;BME280;64740;34.694;33.088;2023-02-01T12:46:22;1028.6;;;17.4;42.9
76044;BME280;64740;34.694;33.088;2023-02-01T12:51:52;1028.9;;;16.6;45
76044;BME280;64740;34.694;33.088;2023-02-01T12:56:53;1029.2;;;16;46.4
76044;BME280;64740;34.694;33.088;2023-02-01T13:02:01;1029.4;;;15.4;47.6
76044;BME280;64740;34.694;33.088;2023-02-01T13:06:26;1029.6;;;14.8;48.4
76044;BME280;64740;34.694;33.088;2023-02-01T13:12:04;1029.7;;;14.3;49.1
76044;BME280;64740;34.694;33.088;2023-02-01T13:16:13;1029.8;;;14;49.8
76044;BME280;64740;34.694;33.088;2023-02-01T13:21:12;1030;;;13.6;49.8
76044;BME280;64740;34.694;33.088;2023-02-01T13:26:35;1030.2;;;13.3;50.2
76044;BME280;64740;34.694;33.088;2023-02-01T13:31:48;1030.4;;;13.1;50.4
76044;BME280;64740;34.694;33.088;2023-02-01T13:36:42;1030.7;;;12.9;50.4
76044;BME280;64740;34.694;33.088;2023-02-01T13:41:15;1030.8;;;12.7;50.8
76044;BME280;64740;34.694;33.088;2023-02-01T13:46:39;1031;;;12.6;51.4
76044;BME280;64740;34.694;33.088;2023-02-01T13:52:01;1031.1;;;12.5;51.3
76044;BME280;64740;34.694;33.088;2023-02-01T13:57:02;1031;;;12.4;51.7
76044;BME280;64740;34.694;33.088;2023-02-01T14:01:42;1031;;;12.5;52.1
76044;BME280;64740;34.694;33.088;2023-02-01T14:07:01;1030.9;;;12.5;52.5
76044;BME280;64740;34.694;33.088;2023-02-01T14:11:33;1030.8;;;12.6;52.7
76044;BME280;64740;34.694;33.088;2023-02-01T14:16:25;1030.8;;;12.6;52.4
76044;BME280;64740;34.694;33.088;2023-02-01T14:21:46;1030.7;;;12.8;52.7
76044;BME280;64740;34.694;33.088;2023-02-01T14:26:12;1030.7;;;12.8;52.3
76044;BME280;64740;34.694;33.088;2023-02-01T14:31:30;1030.7;;;12.9;51.8
76044;BME280;64740;34.694;33.088;2023-02-01T14:36:25;1030.8;;;13;51.6
76044;BME280;64740;34.694;33.088;2023-02-01T14:41:37;1030.8;;;13;51
76044;BME280;64740;34.694;33.088;2023-02-01T14:47:05;1030.7;;;13;51
76044;BME280;64740;34.694;33.088;2023-02-01T14:51:37;1030.8;;;13;50.6
76044;BME280;64740;34.694;33.088;2023-02-01T14:56:21;1030.9;;;12.9;50.7
76044;BME280;64740;34.694;33.088;2023-02-01T15:01:57;1031.1;;;12.9;51.1
76044;BME280;64740;34.694;33.088;2023-02-01T15:06:46;1031.3;;;12.9;51.1
76044;BME280;64740;34.694;33.088;2023-02-01T15:11:13;1031.4;;;12.9;51.3
76044;BME280;64740;34.694;33.088;2023-02-01T15:16:35;1031.5;;;12.9;51.8
76044;BME280;64740;34.694;33.088;2023-02-01T15:21:25;1031.6;;;12.9;52.1
76044;BME280;64740;34.694;33.088;2023-02-01T15:26:35;1031.7;;;12.8;51.4
76044;BME280;64740;34.694;33.088;2023-02-01T15:31:59;1031.6;;;12.8;50.8
76044;BME280;64740;34.694;33.088;2023-02-01T15:36:37;1031.5;;;12.9;50.7
76044;BME280;64740;34.694;33.088;2023-02-01T15:42:08;1031.2;;;13.1;50.1
76044;BME280;64740;34.694;33.088;2023-02-01T15:46:40;1031.1;;;13.3;50.4
76044;BME280;64740;34.694;33.088;2023-02-01T15:52:01;1031.1;;;13.5;50.2
76044;BME280;64740;34.694;33.088;2023-02-01T15:56:11;1031.2;;;13.6;50.7
76044;BME280;64740;34.694;33.088;2023-02-01T16:01:45;1031.3;;;13.7;50.7
76044;BME280;64740;34.694;33.088;2023-02-01T16:06:27;1031.6;;;13.8;50.5
76044;BME280;64740;34.694;33.088;2023-02-01T16:11:58;1031.9;;;13.8;49.9
76044;BME280;64740;34.694;33.088;2023-02-01T16:16:49;1032.2;;;13.9;49
76044;BME280;64740;34.694;33.088;2023-02-01T16:21:57;1032.4;;;13.9;48.5
76044;BME280;64740;34.694;33.088;2023-02-01T16:26:59;1032.5;;;14;48.7
76044;BME280;64740;34.694;33.088;2023-02-01T16:31:47;1032.6;;;14;47.2
76044;BME280;64740;34.694;33.088;2023-02-01T16:36:46;1032.6;;;14;46.3
76044;BME280;64740;34.694;33.088;2023-02-01T16:41:35;1032.7;;;14.1;46.8
76044;BME280;64740;34.694;33.088;2023-02-01T16:46:49;1032.8;;;14.2;47.3
76044;BME280;64740;34.694;33.088;2023-02-01T16:51:12;1032.8;;;14.2;46.8
76044;BME280;64740;34.694;33.088;2023-02-01T16:56:47;1032.7;;;14.3;46.6
76044;BME280;64740;34.694;33.088;2023-02-01T17:01:12;1032.7;;;14.3;46.9
76044;BME280;64740;34.694;33.088;2023-02-01T17:06:12;1032.8;;;14.1;45.3
76044;BME280;64740;34.694;33.088;2023-02-01T17:11:35;1032.8;;;13.2;47.6
76044;BME280;64740;34.694;33.088;2023-02-01T17:17:01;1032.8;;;12.2;50
76044;BME280;64740;34.694;33.088;2023-02-01T17:21:48;1032.9;;;11.6;50.3
76044;BME280;64740;34.694;33.088;2023-02-01T17:26:37;1033.1;;;11.3;50
76044;BME280;64740;34.694;33.088;2023-02-01T17:31:59;1033.2;;;11.1;49.8
76044;BME280;64740;34.694;33.088;2023-02-01T17:36:12;1033.2;;;11;49.9
76044;BME280;64740;34.694;33.088;2023-02-01T17:41:49;1033.4;;;10.9;49.9
76044;BME280;64740;34.694;33.088;2023-02-01T17:46:12;1033.5;;;10.9;50.2
76044;BME280;64740;34.694;33.088;2023-02-01T17:51:49;1033.5;;;10.9;50.2
76044;BME280;64740;34.694;33.088;2023-02-01T17:56:25;1033.5;;;10.8;50.3
76044;BME280;64740;34.694;33.088;2023-02-01T18:01:59;1033.5;;;10.8;50.4
76044;BME280;64740;34.694;33.088;2023-02-01T18:06:12;1033.4;;;10.8;50.8
76044;BME280;64740;34.694;33.088;2023-02-01T18:11:47;1033.3;;;10.8;50.9
76044;BME280;64740;34.694;33.088;2023-02-01T18:16:49;1033.4;;;10.8;52.4
76044;BME280;64740;34.694;33.088;2023-02-01T18:21:47;1033.5;;;10.8;53
76044;BME280;64740;34.694;33.088;2023-02-01T18:26:35;1033.5;;;10.7;52.8
76044;BME280;64740;34.694;33.088;2023-02-01T18:31:19;1033.8;;;10.7;53.8
76044;BME280;64740;34.694;33.088;2023-02-01T18:36:59;1034;;;10.6;52.8
76044;BME280;64740;34.694;33.088;2023-02-01T18:41:11;1034;;;10.6;51.4
76044;BME280;64740;34.694;33.088;2023-02-01T18:46:45;1034.1;;;10.7;51.9
76044;BME280;64740;34.694;33.088;2023-02-01T18:51:59;1034.2;;;10.7;52.3
76044;BME280;64740;34.694;33.088;2023-02-01T18:56:59;1034.2;;;10.6;51.1
76044;BME280;64740;34.694;33.088;2023-02-01T19:01:20;1034.2;;;10.7;52.9
76044;BME280;64740;34.694;33.088;2023-02-01T19:06:45;1034.2;;;10.6;53.2
76044;BME280;64740;34.694;33.088;2023-02-01T19:11:33;1034.3;;;10.6;53.2
76044;BME280;64740;34.694;33.088;2023-02-01T19:16:23;1034.3;;;10.5;52.9
76044;BME280;64740;34.694;33.088;2023-02-01T19:21:35;1034.4;;;10.5;54.1
76044;BME280;64740;34.694;33.088;2023-02-01T19:26:33;1034.4;;;10.4;53.2
76044;BME280;64740;34.694;33.088;2023-02-01T19:31:35;1034.4;;;10.5;53
76044;BME280;64740;34.694;33.088;2023-02-01T19:36:27;1034.4;;;11;52.3
76044;BME280;64740;34.694;33.088;2023-02-01T19:41:39;1034.5;;;11.5;51.7
76044;BME280;64740;34.694;33.088;2023-02-01T19:46:57;1034.5;;;11.9;51
76044;BME280;64740;34.694;33.088;2023-02-01T19:51:39;1034.6;;;12.2;50.3
76044;BME280;64740;34.694;33.088;2023-02-01T19:56:11;1034.6;;;12.5;49.2
76044;BME280;64740;34.694;33.088;2023-02-01T20:01:59;1034.6;;;12.7;48.7
76044;BME280;64740;34.694;33.088;2023-02-01T20:06:29;1034.6;;;12.9;49
76044;BME280;64740;34.694;33.088;2023-02-01T20:11:11;1034.6;;;13;49.3
76044;BME280;64740;34.694;33.088;2023-02-01T20:16:11;1034.7;;;13.2;49.3
76044;BME280;64740;34.694;33.088;2023-02-01T20:21:11;1034.7;;;13.3;50
76044;BME280;64740;34.694;33.088;2023-02-01T20:26:35;1034.6;;;13.3;50.1
76044;BME280;64740;34.694;33.088;2023-02-01T20:31:59;1034.6;;;13.4;49.1
76044;BME280;64740;34.694;33.088;2023-02-01T20:36:37;1034.7;;;13.4;48.7
76044;BME280;64740;34.694;33.088;2023-02-01T20:41:57;1034.7;;;13.4;49.8
76044;BME280;64740;34.694;33.088;2023-02-01T20:46:39;1034.7;;;13.4;49.6
76044;BME280;64740;34.694;33.088;2023-02-01T20:51:57;1034.9;;;13.4;48.9
76044;BME280;64740;34.694;33.088;2023-02-01T20:56:21;1035.1;;;13.2;47.9
76044;BME280;64740;34.694;33.088;2023-02-01T21:01:45;1035.1;;;13.1;46.9
76044;BME280;64740;34.694;33.088;2023-02-01T21:06:25;1035.1;;;13.1;46.2
76044;BME280;64740;34.694;33.088;2023-02-01T21:11:57;1035.1;;;13;45.7
76044;BME280;64740;34.694;33.088;2023-02-01T21:16:12;1035.2;;;13;45.7
76044;BME280;64740;34.694;33.088;2023-02-01T21:21:59;1035.2;;;12.9;45.4
76044;BME280;64740;34.694;33.088;2023-02-01T21:27:01;1035.2;;;12.8;45.3
76044;BME280;64740;34.694;33.088;2023-02-01T21:31:11;1035.3;;;12.7;45
76044;BME280;64740;34.694;33.088;2023-02-01T21:36:45;1035.5;;;12.8;44.8
76044;BME280;64740;34.694;33.088;2023-02-01T21:41:11;1035.6;;;12.8;44.6
76044;BME280;64740;34.694;33.088;2023-02-01T21:46:49;1035.5;;;12.7;44.4
76044;BME280;64740;34.694;33.088;2023-02-01T21:51:25;1035.6;;;12.7;44.7
76044;BME280;64740;34.694;33.088;2023-02-01T21:56:45;1035.6;;;12.7;44.7
76044;BME280;64740;34.694;33.088;2023-02-01T22:01:25;1035.7;;;12.7;44.5
76044;BME280;64740;34.694;33.088;2023-02-01T22:06:45;1035.6;;;12.7;44.5
76044;BME280;64740;34.694;33.088;2023-02-01T22:11:25;1035.7;;;12.7;44.5
76044;BME280;64740;34.694;33.088;2023-02-01T22:16:59;1035.7;;;12.7;44.5
76044;BME280;64740;34.694;33.088;2023-02-01T22:21:49;1035.7;;;12.7;44.4
76044;BME280;64740;34.694;33.088;2023-02-01T22:26:49;1035.7;;;12.7;44.2
76044;BME280;64740;34.694;33.088;2023-02-01T22:31:43;1035.6;;;12.7;44.2
76044;BME280;64740;34.694;33.088;2023-02-01T22:36:45;1035.7;;;12.7;43.9
76044;BME280;64740;34.694;33.088;2023-02-01T22:41:47;1035.8;;;12.8;43.7
76044;BME280;64740;34.694;33.088;2023-02-01T22:46:12;1035.8;;;12.7;43.2
76044;BME280;64740;34.694;33.088;2023-02-01T22:51:43;1035.9;;;12.7;43
76044;BME280;64740;34.694;33.088;2023-02-01T22:56:23;1036.1;;;12.7;43
76044;BME280;64740;34.694;33.088;2023-02-01T23:01:41;1036.2;;;12.7;43
76044;BME280;64740;34.694;33.088;2023-02-01T23:06:33;1036.2;;;12.7;43
76044;BME280;64740;34.694;33.088;2023-02-01T23:11:57;1036.3;;;12.6;43.2
76044;BME280;64740;34.694;33.088;2023-02-01T23:16:43;1036.4;;;12.6;43.1
76044;BME280;64740;34.694;33.088;2023-02-01T23:21:45;1036.3;;;12.6;43.3
76044;BME280;64740;34.694;33.088;2023-02-01T23:26:55;1036.3;;;12.5;43.6
76044;BME280;64740;34.694;33.088;2023-02-01T23:31:24;1036.3;;;12.5;43.6
76044;BME280;64740;34.694;33.088;2023-02-01T23:36:47;1036.3;;;12.4;43.7
76044;BME280;64740;34.694;33.088;2023-02-01T23:41:12;1036.4;;;12.4;43.7
76044;BME280;64740;34.694;33.088;2023-02-01T23:46:47;1036.5;;;12.5;43.9
76044;BME280;64740;34.694;33.088;2023-02-01T23:51:23;1036.4;;;12.5;44.1
76044;BME280;64740;34.694;33.088;2023-02-01T23:56:47;1036.4;;;12.6;45.1
